sensor_id;sensor_type;location;lat;lon;timestamp;P1;durP1;ratioP1;P2;durP2;ratioP2
5876;SDS011;2964;42.144;24.730;2023-03-15T00:01:53;10.03;;;7.13;;
5876;SDS011;2964;42.144;24.730;2023-03-15T00:04:19;7.80;;;6.93;;
5876;SDS011;2964;42.144;24.730;2023-03-15T00:06:49;7.70;;;6.23;;
5876;SDS011;2964;42.144;24.730;2023-03-15T00:09:15;8.60;;;5.87;;
5876;SDS011;2964;42.144;24.730;2023-03-15T00:11:42;7.07;;;6.37;;
5876;SDS011;2964;42.144;24.730;2023-03-15T00:14:09;10.33;;;7.00;;
5876;SDS011;2964;42.144;24.730;2023-03-15T00:16:37;6.90;;;6.30;;
5876;SDS011;2964;42.144;24.730;2023-03-15T00:19:03;7.80;;;6.83;;
5876;SDS011;2964;42.144;24.730;2023-03-15T00:21:30;7.40;;;6.70;;
5876;SDS011;2964;42.144;24.730;2023-03-15T00:23:58;7.07;;;6.37;;
5876;SDS011;2964;42.144;24.730;2023-03-15T00:26:24;6.93;;;6.20;;
5876;SDS011;2964;42.144;24.730;2023-03-15T00:28:51;8.13;;;6.60;;
5876;SDS011;2964;42.144;24.730;2023-03-15T00:31:18;8.97;;;6.33;;
5876;SDS011;2964;42.144;24.730;2023-03-15T00:33:47;10.83;;;6.50;;
5876;SDS011;2964;42.144;24.730;2023-03-15T00:36:18;9.27;;;5.60;;
5876;SDS011;2964;42.144;24.730;2023-03-15T00:38:47;9.70;;;7.00;;
5876;SDS011;2964;42.144;24.730;2023-03-15T00:41:15;7.00;;;6.37;;
5876;SDS011;2964;42.144;24.730;2023-03-15T00:43:43;6.73;;;6.17;;
5876;SDS011;2964;42.144;24.730;2023-03-15T00:46:11;6.63;;;6.13;;
5876;SDS011;2964;42.144;24.730;2023-03-15T00:48:38;6.70;;;6.07;;
5876;SDS011;2964;42.144;24.730;2023-03-15T00:51:06;7.23;;;6.60;;
5876;SDS011;2964;42.144;24.730;2023-03-15T00:53:35;7.40;;;6.70;;
5876;SDS011;2964;42.144;24.730;2023-03-15T00:56:03;7.53;;;6.90;;
5876;SDS011;2964;42.144;24.730;2023-03-15T00:58:31;7.90;;;6.80;;
5876;SDS011;2964;42.144;24.730;2023-03-15T01:00:57;8.40;;;6.53;;
5876;SDS011;2964;42.144;24.730;2023-03-15T01:03:24;6.90;;;6.23;;
5876;SDS011;2964;42.144;24.730;2023-03-15T01:05:51;8.40;;;7.00;;
5876;SDS011;2964;42.144;24.730;2023-03-15T01:08:19;10.13;;;6.77;;
5876;SDS011;2964;42.144;24.730;2023-03-15T01:10:48;7.20;;;6.57;;
5876;SDS011;2964;42.144;24.730;2023-03-15T01:13:15;8.90;;;7.03;;
5876;SDS011;2964;42.144;24.730;2023-03-15T01:15:43;11.37;;;7.37;;
5876;SDS011;2964;42.144;24.730;2023-03-15T01:18:10;10.10;;;7.70;;
5876;SDS011;2964;42.144;24.730;2023-03-15T01:20:40;13.10;;;9.50;;
5876;SDS011;2964;42.144;24.730;2023-03-15T01:23:08;19.17;;;11.67;;
5876;SDS011;2964;42.144;24.730;2023-03-15T01:25:36;16.03;;;13.20;;
5876;SDS011;2964;42.144;24.730;2023-03-15T01:28:02;20.07;;;12.93;;
5876;SDS011;2964;42.144;24.730;2023-03-15T01:30:29;25.97;;;15.03;;
5876;SDS011;2964;42.144;24.730;2023-03-15T01:32:56;29.50;;;18.63;;
5876;SDS011;2964;42.144;24.730;2023-03-15T01:35:22;22.33;;;16.97;;
5876;SDS011;2964;42.144;24.730;2023-03-15T01:37:49;21.60;;;16.17;;
5876;SDS011;2964;42.144;24.730;2023-03-15T01:40:16;23.90;;;16.50;;
5876;SDS011;2964;42.144;24.730;2023-03-15T01:42:52;20.60;;;16.37;;
5876;SDS011;2964;42.144;24.730;2023-03-15T01:45:53;24.97;;;16.23;;
5876;SDS011;2964;42.144;24.730;2023-03-15T01:48:27;27.10;;;16.57;;
5876;SDS011;2964;42.144;24.730;2023-03-15T01:50:57;25.70;;;17.47;;
5876;SDS011;2964;42.144;24.730;2023-03-15T01:53:26;27.83;;;18.23;;
5876;SDS011;2964;42.144;24.730;2023-03-15T01:55:56;27.33;;;16.77;;
5876;SDS011;2964;42.144;24.730;2023-03-15T01:58:26;23.97;;;17.23;;
5876;SDS011;2964;42.144;24.730;2023-03-15T02:00:54;21.00;;;17.00;;
5876;SDS011;2964;42.144;24.730;2023-03-15T02:03:22;26.17;;;16.23;;
5876;SDS011;2964;42.144;24.730;2023-03-15T02:05:53;30.53;;;18.77;;
5876;SDS011;2964;42.144;24.730;2023-03-15T02:08:23;29.63;;;17.77;;
5876;SDS011;2964;42.144;24.730;2023-03-15T02:10:54;24.80;;;17.87;;
5876;SDS011;2964;42.144;24.730;2023-03-15T02:13:23;27.37;;;18.63;;
5876;SDS011;2964;42.144;24.730;2023-03-15T02:15:54;30.13;;;19.43;;
5876;SDS011;2964;42.144;24.730;2023-03-15T02:18:22;25.93;;;18.60;;
5876;SDS011;2964;42.144;24.730;2023-03-15T02:20:50;28.60;;;18.97;;
5876;SDS011;2964;42.144;24.730;2023-03-15T02:23:24;27.47;;;18.00;;
5876;SDS011;2964;42.144;24.730;2023-03-15T02:25:54;25.13;;;19.00;;
5876;SDS011;2964;42.144;24.730;2023-03-15T02:28:30;25.67;;;18.13;;
5876;SDS011;2964;42.144;24.730;2023-03-15T02:30:57;31.23;;;20.33;;
5876;SDS011;2964;42.144;24.730;2023-03-15T02:33:25;24.33;;;18.37;;
5876;SDS011;2964;42.144;24.730;2023-03-15T02:35:54;26.83;;;18.87;;
5876;SDS011;2964;42.144;24.730;2023-03-15T02:38:31;27.13;;;18.70;;
5876;SDS011;2964;42.144;24.730;2023-03-15T02:40:57;27.80;;;17.33;;
5876;SDS011;2964;42.144;24.730;2023-03-15T02:43:25;34.77;;;18.17;;
5876;SDS011;2964;42.144;24.730;2023-03-15T02:45:57;26.03;;;17.60;;
5876;SDS011;2964;42.144;24.730;2023-03-15T02:48:25;22.47;;;17.63;;
5876;SDS011;2964;42.144;24.730;2023-03-15T02:50:52;24.23;;;18.17;;
5876;SDS011;2964;42.144;24.730;2023-03-15T02:53:18;25.07;;;17.83;;
5876;SDS011;2964;42.144;24.730;2023-03-15T02:55:45;28.30;;;18.87;;
5876;SDS011;2964;42.144;24.730;2023-03-15T02:58:12;31.17;;;18.63;;
5876;SDS011;2964;42.144;24.730;2023-03-15T03:00:39;28.60;;;18.13;;
5876;SDS011;2964;42.144;24.730;2023-03-15T03:03:07;36.00;;;19.13;;
5876;SDS011;2964;42.144;24.730;2023-03-15T03:05:33;34.83;;;19.13;;
5876;SDS011;2964;42.144;24.730;2023-03-15T03:08:00;31.90;;;18.87;;
5876;SDS011;2964;42.144;24.730;2023-03-15T03:10:27;29.30;;;18.30;;
5876;SDS011;2964;42.144;24.730;2023-03-15T03:12:54;28.50;;;18.73;;
5876;SDS011;2964;42.144;24.730;2023-03-15T03:15:20;34.30;;;18.33;;
5876;SDS011;2964;42.144;24.730;2023-03-15T03:17:47;27.47;;;18.17;;
5876;SDS011;2964;42.144;24.730;2023-03-15T03:20:15;28.53;;;18.27;;
5876;SDS011;2964;42.144;24.730;2023-03-15T03:22:42;25.70;;;19.43;;
5876;SDS011;2964;42.144;24.730;2023-03-15T03:25:10;36.93;;;20.77;;
5876;SDS011;2964;42.144;24.730;2023-03-15T03:27:38;27.17;;;18.80;;
5876;SDS011;2964;42.144;24.730;2023-03-15T03:30:05;28.40;;;18.50;;
5876;SDS011;2964;42.144;24.730;2023-03-15T03:32:36;31.63;;;18.20;;
5876;SDS011;2964;42.144;24.730;2023-03-15T03:35:03;28.23;;;19.50;;
5876;SDS011;2964;42.144;24.730;2023-03-15T03:37:31;34.67;;;18.57;;
5876;SDS011;2964;42.144;24.730;2023-03-15T03:39:59;28.40;;;18.57;;
5876;SDS011;2964;42.144;24.730;2023-03-15T03:42:29;26.27;;;18.10;;
5876;SDS011;2964;42.144;24.730;2023-03-15T03:44:56;32.27;;;18.57;;
5876;SDS011;2964;42.144;24.730;2023-03-15T03:47:22;29.17;;;18.80;;
5876;SDS011;2964;42.144;24.730;2023-03-15T03:49:49;16.87;;;12.13;;
5876;SDS011;2964;42.144;24.730;2023-03-15T03:52:15;12.30;;;10.03;;
5876;SDS011;2964;42.144;24.730;2023-03-15T03:54:43;10.80;;;8.87;;
5876;SDS011;2964;42.144;24.730;2023-03-15T03:57:10;18.90;;;9.33;;
5876;SDS011;2964;42.144;24.730;2023-03-15T03:59:37;10.63;;;9.53;;
5876;SDS011;2964;42.144;24.730;2023-03-15T04:02:03;14.90;;;9.47;;
5876;SDS011;2964;42.144;24.730;2023-03-15T04:04:30;12.87;;;11.37;;
5876;SDS011;2964;42.144;24.730;2023-03-15T04:06:57;20.27;;;14.53;;
5876;SDS011;2964;42.144;24.730;2023-03-15T04:09:23;22.07;;;16.57;;
5876;SDS011;2964;42.144;24.730;2023-03-15T04:11:51;22.30;;;16.13;;
5876;SDS011;2964;42.144;24.730;2023-03-15T04:14:18;28.20;;;17.10;;
5876;SDS011;2964;42.144;24.730;2023-03-15T04:16:45;34.60;;;18.07;;
5876;SDS011;2964;42.144;24.730;2023-03-15T04:19:12;30.93;;;18.87;;
5876;SDS011;2964;42.144;24.730;2023-03-15T04:21:38;30.30;;;18.83;;
5876;SDS011;2964;42.144;24.730;2023-03-15T04:24:11;31.60;;;19.37;;
5876;SDS011;2964;42.144;24.730;2023-03-15T04:26:38;24.40;;;18.17;;
5876;SDS011;2964;42.144;24.730;2023-03-15T04:29:07;26.63;;;17.93;;
5876;SDS011;2964;42.144;24.730;2023-03-15T04:31:35;26.47;;;17.63;;
5876;SDS011;2964;42.144;24.730;2023-03-15T04:34:02;30.57;;;19.33;;
5876;SDS011;2964;42.144;24.730;2023-03-15T04:36:29;22.67;;;16.13;;
5876;SDS011;2964;42.144;24.730;2023-03-15T04:38:56;23.47;;;16.57;;
5876;SDS011;2964;42.144;24.730;2023-03-15T04:41:30;29.07;;;20.03;;
5876;SDS011;2964;42.144;24.730;2023-03-15T04:43:58;20.43;;;11.77;;
5876;SDS011;2964;42.144;24.730;2023-03-15T04:46:26;13.67;;;11.03;;
5876;SDS011;2964;42.144;24.730;2023-03-15T04:48:53;13.17;;;9.17;;
5876;SDS011;2964;42.144;24.730;2023-03-15T04:51:20;12.67;;;10.93;;
5876;SDS011;2964;42.144;24.730;2023-03-15T04:53:46;16.03;;;10.00;;
5876;SDS011;2964;42.144;24.730;2023-03-15T04:56:13;10.70;;;9.70;;
5876;SDS011;2964;42.144;24.730;2023-03-15T04:58:40;11.40;;;10.20;;
5876;SDS011;2964;42.144;24.730;2023-03-15T05:01:06;15.73;;;11.03;;
5876;SDS011;2964;42.144;24.730;2023-03-15T05:03:34;10.83;;;9.43;;
5876;SDS011;2964;42.144;24.730;2023-03-15T05:06:01;11.43;;;10.00;;
5876;SDS011;2964;42.144;24.730;2023-03-15T05:08:32;17.87;;;14.70;;
5876;SDS011;2964;42.144;24.730;2023-03-15T05:10:59;23.60;;;15.93;;
5876;SDS011;2964;42.144;24.730;2023-03-15T05:13:25;28.87;;;17.20;;
5876;SDS011;2964;42.144;24.730;2023-03-15T05:15:52;31.20;;;19.20;;
5876;SDS011;2964;42.144;24.730;2023-03-15T05:18:19;24.57;;;18.10;;
5876;SDS011;2964;42.144;24.730;2023-03-15T05:20:47;21.43;;;17.33;;
5876;SDS011;2964;42.144;24.730;2023-03-15T05:23:14;24.93;;;17.00;;
5876;SDS011;2964;42.144;24.730;2023-03-15T05:25:40;28.23;;;18.83;;
5876;SDS011;2964;42.144;24.730;2023-03-15T05:28:07;31.43;;;17.53;;
5876;SDS011;2964;42.144;24.730;2023-03-15T05:30:34;24.20;;;17.30;;
5876;SDS011;2964;42.144;24.730;2023-03-15T05:33:01;31.83;;;18.73;;
5876;SDS011;2964;42.144;24.730;2023-03-15T05:35:29;32.03;;;17.90;;
5876;SDS011;2964;42.144;24.730;2023-03-15T05:37:57;29.20;;;19.20;;
5876;SDS011;2964;42.144;24.730;2023-03-15T05:40:23;23.87;;;17.63;;
5876;SDS011;2964;42.144;24.730;2023-03-15T05:42:53;25.23;;;16.80;;
5876;SDS011;2964;42.144;24.730;2023-03-15T05:45:20;23.87;;;17.60;;
5876;SDS011;2964;42.144;24.730;2023-03-15T05:47:47;23.43;;;17.13;;
5876;SDS011;2964;42.144;24.730;2023-03-15T05:50:14;20.97;;;14.80;;
5876;SDS011;2964;42.144;24.730;2023-03-15T05:52:42;21.80;;;14.30;;
5876;SDS011;2964;42.144;24.730;2023-03-15T05:55:10;22.60;;;15.63;;
5876;SDS011;2964;42.144;24.730;2023-03-15T05:57:37;23.07;;;14.17;;
5876;SDS011;2964;42.144;24.730;2023-03-15T06:00:04;20.30;;;14.30;;
5876;SDS011;2964;42.144;24.730;2023-03-15T06:02:33;20.43;;;15.00;;
5876;SDS011;2964;42.144;24.730;2023-03-15T06:04:59;23.53;;;15.00;;
5876;SDS011;2964;42.144;24.730;2023-03-15T06:07:26;23.93;;;15.20;;
5876;SDS011;2964;42.144;24.730;2023-03-15T06:09:52;21.37;;;14.17;;
5876;SDS011;2964;42.144;24.730;2023-03-15T06:12:20;17.30;;;12.60;;
5876;SDS011;2964;42.144;24.730;2023-03-15T06:14:47;17.43;;;12.03;;
5876;SDS011;2964;42.144;24.730;2023-03-15T06:17:14;13.90;;;12.17;;
5876;SDS011;2964;42.144;24.730;2023-03-15T06:19:41;15.00;;;12.27;;
5876;SDS011;2964;42.144;24.730;2023-03-15T06:22:07;14.03;;;11.17;;
5876;SDS011;2964;42.144;24.730;2023-03-15T06:24:34;16.37;;;11.37;;
5876;SDS011;2964;42.144;24.730;2023-03-15T06:27:01;13.00;;;11.40;;
5876;SDS011;2964;42.144;24.730;2023-03-15T06:29:29;16.27;;;10.83;;
5876;SDS011;2964;42.144;24.730;2023-03-15T06:31:56;13.53;;;11.47;;
5876;SDS011;2964;42.144;24.730;2023-03-15T06:34:22;15.57;;;13.67;;
5876;SDS011;2964;42.144;24.730;2023-03-15T06:36:49;14.00;;;12.30;;
5876;SDS011;2964;42.144;24.730;2023-03-15T06:39:16;22.10;;;12.87;;
5876;SDS011;2964;42.144;24.730;2023-03-15T06:41:43;19.03;;;14.47;;
5876;SDS011;2964;42.144;24.730;2023-03-15T06:44:10;18.93;;;14.73;;
5876;SDS011;2964;42.144;24.730;2023-03-15T06:46:38;23.87;;;15.90;;
5876;SDS011;2964;42.144;24.730;2023-03-15T06:49:04;17.67;;;14.80;;
5876;SDS011;2964;42.144;24.730;2023-03-15T06:51:31;22.30;;;14.30;;
5876;SDS011;2964;42.144;24.730;2023-03-15T06:53:58;25.13;;;16.13;;
5876;SDS011;2964;42.144;24.730;2023-03-15T06:56:25;25.17;;;16.10;;
5876;SDS011;2964;42.144;24.730;2023-03-15T06:58:51;13.63;;;12.23;;
5876;SDS011;2964;42.144;24.730;2023-03-15T07:01:18;14.27;;;12.77;;
5876;SDS011;2964;42.144;24.730;2023-03-15T07:03:46;13.73;;;12.17;;
5876;SDS011;2964;42.144;24.730;2023-03-15T07:06:12;17.57;;;11.80;;
5876;SDS011;2964;42.144;24.730;2023-03-15T07:08:39;16.03;;;12.20;;
5876;SDS011;2964;42.144;24.730;2023-03-15T07:11:06;18.67;;;12.97;;
5876;SDS011;2964;42.144;24.730;2023-03-15T07:13:32;13.70;;;11.50;;
5876;SDS011;2964;42.144;24.730;2023-03-15T07:15:59;16.53;;;12.03;;
5876;SDS011;2964;42.144;24.730;2023-03-15T07:18:26;14.50;;;12.67;;
5876;SDS011;2964;42.144;24.730;2023-03-15T07:20:57;18.30;;;12.63;;
5876;SDS011;2964;42.144;24.730;2023-03-15T07:23:25;15.97;;;11.20;;
5876;SDS011;2964;42.144;24.730;2023-03-15T07:25:52;15.17;;;11.30;;
5876;SDS011;2964;42.144;24.730;2023-03-15T07:28:20;12.37;;;11.03;;
5876;SDS011;2964;42.144;24.730;2023-03-15T07:30:54;13.83;;;12.07;;
5876;SDS011;2964;42.144;24.730;2023-03-15T07:33:21;21.50;;;12.37;;
5876;SDS011;2964;42.144;24.730;2023-03-15T07:35:49;13.40;;;11.53;;
5876;SDS011;2964;42.144;24.730;2023-03-15T07:38:17;16.13;;;11.70;;
5876;SDS011;2964;42.144;24.730;2023-03-15T07:40:44;15.07;;;11.80;;
5876;SDS011;2964;42.144;24.730;2023-03-15T07:43:11;13.67;;;12.27;;
5876;SDS011;2964;42.144;24.730;2023-03-15T07:45:38;16.60;;;11.50;;
5876;SDS011;2964;42.144;24.730;2023-03-15T07:48:05;12.00;;;10.80;;
5876;SDS011;2964;42.144;24.730;2023-03-15T07:50:32;14.57;;;12.03;;
5876;SDS011;2964;42.144;24.730;2023-03-15T07:52:58;14.10;;;12.40;;
5876;SDS011;2964;42.144;24.730;2023-03-15T07:55:26;14.30;;;11.97;;
5876;SDS011;2964;42.144;24.730;2023-03-15T07:57:53;20.57;;;12.17;;
5876;SDS011;2964;42.144;24.730;2023-03-15T08:00:20;17.70;;;11.93;;
5876;SDS011;2964;42.144;24.730;2023-03-15T08:02:47;18.77;;;12.10;;
5876;SDS011;2964;42.144;24.730;2023-03-15T08:05:13;18.20;;;12.17;;
5876;SDS011;2964;42.144;24.730;2023-03-15T08:07:43;17.23;;;12.83;;
5876;SDS011;2964;42.144;24.730;2023-03-15T08:10:10;16.50;;;12.27;;
5876;SDS011;2964;42.144;24.730;2023-03-15T08:12:39;13.20;;;11.87;;
5876;SDS011;2964;42.144;24.730;2023-03-15T08:15:08;15.17;;;13.67;;
5876;SDS011;2964;42.144;24.730;2023-03-15T08:17:35;15.20;;;13.60;;
5876;SDS011;2964;42.144;24.730;2023-03-15T08:20:02;12.73;;;11.33;;
5876;SDS011;2964;42.144;24.730;2023-03-15T08:22:30;15.67;;;12.83;;
5876;SDS011;2964;42.144;24.730;2023-03-15T08:24:57;17.50;;;13.57;;
5876;SDS011;2964;42.144;24.730;2023-03-15T08:27:24;18.90;;;15.40;;
5876;SDS011;2964;42.144;24.730;2023-03-15T08:29:52;17.97;;;15.63;;
5876;SDS011;2964;42.144;24.730;2023-03-15T08:32:18;16.77;;;13.73;;
5876;SDS011;2964;42.144;24.730;2023-03-15T08:34:45;15.07;;;12.93;;
5876;SDS011;2964;42.144;24.730;2023-03-15T08:37:12;14.53;;;12.67;;
5876;SDS011;2964;42.144;24.730;2023-03-15T08:39:39;17.07;;;13.17;;
5876;SDS011;2964;42.144;24.730;2023-03-15T08:42:06;13.80;;;11.67;;
5876;SDS011;2964;42.144;24.730;2023-03-15T08:44:33;12.47;;;10.90;;
5876;SDS011;2964;42.144;24.730;2023-03-15T08:47:01;12.47;;;11.10;;
5876;SDS011;2964;42.144;24.730;2023-03-15T08:49:29;14.37;;;12.33;;
5876;SDS011;2964;42.144;24.730;2023-03-15T08:51:55;13.20;;;11.60;;
5876;SDS011;2964;42.144;24.730;2023-03-15T08:54:22;18.63;;;13.03;;
5876;SDS011;2964;42.144;24.730;2023-03-15T08:56:49;13.80;;;12.57;;
5876;SDS011;2964;42.144;24.730;2023-03-15T08:59:16;14.73;;;12.50;;
5876;SDS011;2964;42.144;24.730;2023-03-15T09:01:43;14.60;;;11.77;;
5876;SDS011;2964;42.144;24.730;2023-03-15T09:04:11;16.60;;;13.03;;
5876;SDS011;2964;42.144;24.730;2023-03-15T09:06:37;13.10;;;11.90;;
5876;SDS011;2964;42.144;24.730;2023-03-15T09:09:04;13.50;;;11.80;;
5876;SDS011;2964;42.144;24.730;2023-03-15T09:11:31;12.33;;;11.20;;
5876;SDS011;2964;42.144;24.730;2023-03-15T09:13:58;12.73;;;11.63;;
5876;SDS011;2964;42.144;24.730;2023-03-15T09:16:24;13.30;;;11.77;;
5876;SDS011;2964;42.144;24.730;2023-03-15T09:18:51;13.87;;;11.63;;
5876;SDS011;2964;42.144;24.730;2023-03-15T09:21:19;19.17;;;12.70;;
5876;SDS011;2964;42.144;24.730;2023-03-15T09:23:46;19.70;;;12.87;;
5876;SDS011;2964;42.144;24.730;2023-03-15T09:26:12;14.07;;;12.70;;
5876;SDS011;2964;42.144;24.730;2023-03-15T09:28:39;14.70;;;13.13;;
5876;SDS011;2964;42.144;24.730;2023-03-15T09:31:06;12.73;;;11.63;;
5876;SDS011;2964;42.144;24.730;2023-03-15T09:33:32;15.90;;;11.97;;
5876;SDS011;2964;42.144;24.730;2023-03-15T09:35:59;16.77;;;13.37;;
5876;SDS011;2964;42.144;24.730;2023-03-15T09:38:27;14.40;;;12.37;;
5876;SDS011;2964;42.144;24.730;2023-03-15T09:40:55;17.10;;;13.47;;
5876;SDS011;2964;42.144;24.730;2023-03-15T09:43:42;14.57;;;13.07;;
5876;SDS011;2964;42.144;24.730;2023-03-15T09:46:26;14.37;;;12.87;;
5876;SDS011;2964;42.144;24.730;2023-03-15T09:48:58;18.20;;;11.53;;
5876;SDS011;2964;42.144;24.730;2023-03-15T09:51:31;14.13;;;12.93;;
5876;SDS011;2964;42.144;24.730;2023-03-15T09:54:03;13.33;;;12.07;;
5876;SDS011;2964;42.144;24.730;2023-03-15T09:56:36;12.60;;;11.30;;
5876;SDS011;2964;42.144;24.730;2023-03-15T09:59:09;15.90;;;12.60;;
5876;SDS011;2964;42.144;24.730;2023-03-15T10:01:40;14.60;;;13.07;;
5876;SDS011;2964;42.144;24.730;2023-03-15T10:04:09;13.03;;;11.73;;
5876;SDS011;2964;42.144;24.730;2023-03-15T10:06:42;15.77;;;12.33;;
5876;SDS011;2964;42.144;24.730;2023-03-15T10:09:17;16.73;;;13.23;;
5876;SDS011;2964;42.144;24.730;2023-03-15T10:11:48;12.97;;;11.80;;
5876;SDS011;2964;42.144;24.730;2023-03-15T10:14:26;21.27;;;13.07;;
5876;SDS011;2964;42.144;24.730;2023-03-15T10:17:01;16.17;;;12.67;;
5876;SDS011;2964;42.144;24.730;2023-03-15T10:19:37;15.57;;;13.03;;
5876;SDS011;2964;42.144;24.730;2023-03-15T10:22:14;15.67;;;13.20;;
5876;SDS011;2964;42.144;24.730;2023-03-15T10:24:52;13.77;;;12.13;;
5876;SDS011;2964;42.144;24.730;2023-03-15T10:27:23;14.97;;;12.13;;
5876;SDS011;2964;42.144;24.730;2023-03-15T10:29:54;13.90;;;11.87;;
5876;SDS011;2964;42.144;24.730;2023-03-15T10:32:24;14.47;;;13.10;;
5876;SDS011;2964;42.144;24.730;2023-03-15T10:34:54;20.93;;;14.93;;
5876;SDS011;2964;42.144;24.730;2023-03-15T10:37:23;16.40;;;13.23;;
5876;SDS011;2964;42.144;24.730;2023-03-15T10:39:54;19.73;;;12.90;;
5876;SDS011;2964;42.144;24.730;2023-03-15T10:42:26;14.20;;;12.63;;
5876;SDS011;2964;42.144;24.730;2023-03-15T10:44:54;13.90;;;12.70;;
5876;SDS011;2964;42.144;24.730;2023-03-15T10:47:21;20.23;;;13.07;;
5876;SDS011;2964;42.144;24.730;2023-03-15T10:49:54;15.97;;;13.03;;
5876;SDS011;2964;42.144;24.730;2023-03-15T10:52:31;16.17;;;13.63;;
5876;SDS011;2964;42.144;24.730;2023-03-15T10:55:02;13.90;;;12.17;;
5876;SDS011;2964;42.144;24.730;2023-03-15T10:57:36;22.60;;;12.47;;
5876;SDS011;2964;42.144;24.730;2023-03-15T11:00:06;13.50;;;12.23;;
5876;SDS011;2964;42.144;24.730;2023-03-15T11:02:48;13.80;;;12.20;;
5876;SDS011;2964;42.144;24.730;2023-03-15T11:05:16;15.70;;;12.03;;
5876;SDS011;2964;42.144;24.730;2023-03-15T11:07:53;18.07;;;12.43;;
5876;SDS011;2964;42.144;24.730;2023-03-15T11:10:23;14.80;;;13.33;;
5876;SDS011;2964;42.144;24.730;2023-03-15T11:15:37;13.20;;;11.83;;
5876;SDS011;2964;42.144;24.730;2023-03-15T11:18:04;19.77;;;13.73;;
5876;SDS011;2964;42.144;24.730;2023-03-15T11:20:31;15.33;;;13.30;;
5876;SDS011;2964;42.144;24.730;2023-03-15T11:23:03;16.37;;;13.00;;
5876;SDS011;2964;42.144;24.730;2023-03-15T11:25:39;17.00;;;12.70;;
5876;SDS011;2964;42.144;24.730;2023-03-15T11:28:08;35.10;;;15.00;;
5876;SDS011;2964;42.144;24.730;2023-03-15T11:30:41;15.83;;;12.27;;
5876;SDS011;2964;42.144;24.730;2023-03-15T11:33:09;13.60;;;12.03;;
5876;SDS011;2964;42.144;24.730;2023-03-15T11:35:49;17.57;;;12.33;;
5876;SDS011;2964;42.144;24.730;2023-03-15T11:38:20;13.10;;;11.60;;
5876;SDS011;2964;42.144;24.730;2023-03-15T11:40:53;13.20;;;11.90;;
5876;SDS011;2964;42.144;24.730;2023-03-15T11:43:23;13.70;;;12.03;;
5876;SDS011;2964;42.144;24.730;2023-03-15T11:45:54;13.57;;;12.23;;
5876;SDS011;2964;42.144;24.730;2023-03-15T11:48:24;13.13;;;11.80;;
5876;SDS011;2964;42.144;24.730;2023-03-15T11:50:56;12.87;;;11.37;;
5876;SDS011;2964;42.144;24.730;2023-03-15T11:53:24;13.80;;;10.47;;
5876;SDS011;2964;42.144;24.730;2023-03-15T11:56:01;16.00;;;11.77;;
5876;SDS011;2964;42.144;24.730;2023-03-15T11:58:46;11.90;;;10.80;;
5876;SDS011;2964;42.144;24.730;2023-03-15T12:01:28;11.97;;;10.87;;
5876;SDS011;2964;42.144;24.730;2023-03-15T12:06:55;13.70;;;10.73;;
5876;SDS011;2964;42.144;24.730;2023-03-15T12:09:40;14.43;;;11.93;;
5876;SDS011;2964;42.144;24.730;2023-03-15T12:12:35;17.20;;;10.90;;
5876;SDS011;2964;42.144;24.730;2023-03-15T12:15:04;13.10;;;11.50;;
5876;SDS011;2964;42.144;24.730;2023-03-15T12:17:43;12.90;;;11.57;;
5876;SDS011;2964;42.144;24.730;2023-03-15T12:20:18;12.87;;;11.00;;
5876;SDS011;2964;42.144;24.730;2023-03-15T12:22:49;15.17;;;11.63;;
5876;SDS011;2964;42.144;24.730;2023-03-15T12:25:18;28.10;;;14.47;;
5876;SDS011;2964;42.144;24.730;2023-03-15T12:27:49;14.67;;;12.93;;
5876;SDS011;2964;42.144;24.730;2023-03-15T12:30:19;14.03;;;11.47;;
5876;SDS011;2964;42.144;24.730;2023-03-15T12:32:49;12.23;;;11.13;;
5876;SDS011;2964;42.144;24.730;2023-03-15T12:35:19;18.27;;;10.03;;
5876;SDS011;2964;42.144;24.730;2023-03-15T12:37:48;12.03;;;10.07;;
5876;SDS011;2964;42.144;24.730;2023-03-15T12:43:16;10.97;;;9.80;;
5876;SDS011;2964;42.144;24.730;2023-03-15T12:46:00;10.27;;;9.40;;
5876;SDS011;2964;42.144;24.730;2023-03-15T12:48:27;9.73;;;8.73;;
5876;SDS011;2964;42.144;24.730;2023-03-15T12:50:59;9.83;;;8.63;;
5876;SDS011;2964;42.144;24.730;2023-03-15T13:05:11;10.93;;;8.40;;
5876;SDS011;2964;42.144;24.730;2023-03-15T13:07:47;9.43;;;8.53;;
5876;SDS011;2964;42.144;24.730;2023-03-15T13:10:37;9.60;;;8.70;;
5876;SDS011;2964;42.144;24.730;2023-03-15T13:13:13;12.13;;;9.57;;
5876;SDS011;2964;42.144;24.730;2023-03-15T13:15:57;10.47;;;9.57;;
5876;SDS011;2964;42.144;24.730;2023-03-15T13:18:30;11.50;;;10.27;;
5876;SDS011;2964;42.144;24.730;2023-03-15T13:21:04;13.37;;;9.17;;
5876;SDS011;2964;42.144;24.730;2023-03-15T13:23:39;13.50;;;10.60;;
5876;SDS011;2964;42.144;24.730;2023-03-15T13:26:21;10.50;;;9.30;;
5876;SDS011;2964;42.144;24.730;2023-03-15T13:28:58;12.00;;;9.27;;
5876;SDS011;2964;42.144;24.730;2023-03-15T13:31:28;12.43;;;9.20;;
5876;SDS011;2964;42.144;24.730;2023-03-15T13:33:56;10.57;;;9.67;;
5876;SDS011;2964;42.144;24.730;2023-03-15T13:36:37;11.60;;;9.13;;
5876;SDS011;2964;42.144;24.730;2023-03-15T13:39:08;11.53;;;9.80;;
5876;SDS011;2964;42.144;24.730;2023-03-15T13:41:37;10.73;;;9.23;;
5876;SDS011;2964;42.144;24.730;2023-03-15T13:44:04;11.17;;;9.13;;
5876;SDS011;2964;42.144;24.730;2023-03-15T13:46:43;9.33;;;8.43;;
5876;SDS011;2964;42.144;24.730;2023-03-15T13:49:10;10.53;;;9.23;;
5876;SDS011;2964;42.144;24.730;2023-03-15T13:51:37;12.50;;;11.40;;
5876;SDS011;2964;42.144;24.730;2023-03-15T13:54:06;10.80;;;9.73;;
5876;SDS011;2964;42.144;24.730;2023-03-15T13:56:39;15.43;;;8.63;;
5876;SDS011;2964;42.144;24.730;2023-03-15T13:59:19;9.77;;;8.87;;
5876;SDS011;2964;42.144;24.730;2023-03-15T14:01:49;9.07;;;8.17;;
5876;SDS011;2964;42.144;24.730;2023-03-15T14:04:18;9.40;;;8.33;;
5876;SDS011;2964;42.144;24.730;2023-03-15T14:06:47;11.30;;;9.10;;
5876;SDS011;2964;42.144;24.730;2023-03-15T14:09:17;10.23;;;8.90;;
5876;SDS011;2964;42.144;24.730;2023-03-15T14:11:45;10.10;;;8.23;;
5876;SDS011;2964;42.144;24.730;2023-03-15T14:14:27;9.90;;;9.07;;
5876;SDS011;2964;42.144;24.730;2023-03-15T14:16:57;9.90;;;8.93;;
5876;SDS011;2964;42.144;24.730;2023-03-15T14:19:26;11.33;;;8.43;;
5876;SDS011;2964;42.144;24.730;2023-03-15T14:21:56;8.47;;;7.77;;
5876;SDS011;2964;42.144;24.730;2023-03-15T14:24:25;11.37;;;8.70;;
5876;SDS011;2964;42.144;24.730;2023-03-15T14:26:56;15.43;;;9.70;;
5876;SDS011;2964;42.144;24.730;2023-03-15T14:29:26;11.60;;;8.57;;
5876;SDS011;2964;42.144;24.730;2023-03-15T14:31:59;13.17;;;8.27;;
5876;SDS011;2964;42.144;24.730;2023-03-15T14:34:31;12.33;;;8.33;;
5876;SDS011;2964;42.144;24.730;2023-03-15T14:37:01;11.00;;;8.37;;
5876;SDS011;2964;42.144;24.730;2023-03-15T14:39:30;9.57;;;8.67;;
5876;SDS011;2964;42.144;24.730;2023-03-15T14:42:04;12.70;;;8.47;;
5876;SDS011;2964;42.144;24.730;2023-03-15T14:44:31;14.13;;;8.10;;
5876;SDS011;2964;42.144;24.730;2023-03-15T14:46:59;9.23;;;8.53;;
5876;SDS011;2964;42.144;24.730;2023-03-15T14:49:27;9.50;;;8.27;;
5876;SDS011;2964;42.144;24.730;2023-03-15T14:51:56;12.30;;;9.80;;
5876;SDS011;2964;42.144;24.730;2023-03-15T14:54:26;10.00;;;9.03;;
5876;SDS011;2964;42.144;24.730;2023-03-15T14:56:54;10.60;;;8.60;;
5876;SDS011;2964;42.144;24.730;2023-03-15T14:59:21;9.87;;;8.93;;
5876;SDS011;2964;42.144;24.730;2023-03-15T15:01:49;9.37;;;8.47;;
5876;SDS011;2964;42.144;24.730;2023-03-15T15:04:20;8.77;;;7.67;;
5876;SDS011;2964;42.144;24.730;2023-03-15T15:06:47;12.40;;;8.33;;
5876;SDS011;2964;42.144;24.730;2023-03-15T15:09:20;12.00;;;8.90;;
5876;SDS011;2964;42.144;24.730;2023-03-15T15:11:48;12.43;;;8.20;;
5876;SDS011;2964;42.144;24.730;2023-03-15T15:14:15;9.77;;;8.67;;